sensor_id;sensor_type;location;lat;lon;timestamp;temperature;humidity
20590;DHT22;10453;50.810;12.540;2023-05-29T00:00:18;8.20;99.90
20590;DHT22;10453;50.810;12.540;2023-05-29T00:04:37;8.20;99.90
20590;DHT22;10453;50.810;12.540;2023-05-29T00:08:55;8.20;99.90
20590;DHT22;10453;50.810;12.540;2023-05-29T00:13:12;7.90;99.90
20590;DHT22;10453;50.810;12.540;2023-05-29T00:17:30;7.80;99.90
20590;DHT22;10453;50.810;12.540;2023-05-29T00:21:50;8.00;99.90
20590;DHT22;10453;50.810;12.540;2023-05-29T00:26:08;7.90;99.90
20590;DHT22;10453;50.810;12.540;2023-05-29T00:30:25;8.00;99.90
20590;DHT22;10453;50.810;12.540;2023-05-29T00:34:43;7.80;99.90
20590;DHT22;10453;50.810;12.540;2023-05-29T00:39:00;7.50;99.90
20590;DHT22;10453;50.810;12.540;2023-05-29T00:43:18;7.40;99.90
20590;DHT22;10453;50.810;12.540;2023-05-29T00:47:35;7.50;99.90
20590;DHT22;10453;50.810;12.540;2023-05-29T00:51:54;7.40;99.90
20590;DHT22;10453;50.810;12.540;2023-05-29T00:56:12;7.40;99.90
20590;DHT22;10453;50.810;12.540;2023-05-29T01:00:30;7.40;99.90
20590;DHT22;10453;50.810;12.540;2023-05-29T01:04:50;7.50;99.90
20590;DHT22;10453;50.810;12.540;2023-05-29T01:09:11;7.30;99.90
20590;DHT22;10453;50.810;12.540;2023-05-29T01:13:30;7.40;99.90
20590;DHT22;10453;50.810;12.540;2023-05-29T01:27:09;7.20;99.90
20590;DHT22;10453;50.810;12.540;2023-05-29T01:31:28;7.20;99.90
20590;DHT22;10453;50.810;12.540;2023-05-29T01:35:47;7.10;99.90
20590;DHT22;10453;50.810;12.540;2023-05-29T01:40:04;7.10;99.90
20590;DHT22;10453;50.810;12.540;2023-05-29T01:44:23;7.20;99.90
20590;DHT22;10453;50.810;12.540;2023-05-29T01:48:42;7.30;99.90
20590;DHT22;10453;50.810;12.540;2023-05-29T01:53:00;7.20;99.90
20590;DHT22;10453;50.810;12.540;2023-05-29T01:57:18;6.90;99.90
20590;DHT22;10453;50.810;12.540;2023-05-29T02:01:38;6.80;99.90
20590;DHT22;10453;50.810;12.540;2023-05-29T02:05:59;6.80;99.90
20590;DHT22;10453;50.810;12.540;2023-05-29T02:10:17;6.80;99.90
20590;DHT22;10453;50.810;12.540;2023-05-29T02:14:34;7.00;99.90
20590;DHT22;10453;50.810;12.540;2023-05-29T02:18:52;7.20;99.90
20590;DHT22;10453;50.810;12.540;2023-05-29T02:23:09;7.10;99.90
20590;DHT22;10453;50.810;12.540;2023-05-29T02:27:27;7.00;99.90
20590;DHT22;10453;50.810;12.540;2023-05-29T02:31:44;6.90;99.90
20590;DHT22;10453;50.810;12.540;2023-05-29T02:36:02;6.80;99.90
20590;DHT22;10453;50.810;12.540;2023-05-29T02:40:20;6.90;99.90
20590;DHT22;10453;50.810;12.540;2023-05-29T02:44:37;6.90;99.90
20590;DHT22;10453;50.810;12.540;2023-05-29T02:48:55;6.80;99.90
20590;DHT22;10453;50.810;12.540;2023-05-29T02:53:12;6.70;99.90
20590;DHT22;10453;50.810;12.540;2023-05-29T02:57:30;6.60;99.90
20590;DHT22;10453;50.810;12.540;2023-05-29T03:01:47;6.70;99.90
20590;DHT22;10453;50.810;12.540;2023-05-29T03:06:06;6.80;99.90
20590;DHT22;10453;50.810;12.540;2023-05-29T03:10:23;6.80;99.90
20590;DHT22;10453;50.810;12.540;2023-05-29T03:14:40;6.70;99.90
20590;DHT22;10453;50.810;12.540;2023-05-29T03:18:58;6.70;99.90
20590;DHT22;10453;50.810;12.540;2023-05-29T03:23:15;6.60;99.90
20590;DHT22;10453;50.810;12.540;2023-05-29T03:27:33;6.60;99.90
20590;DHT22;10453;50.810;12.540;2023-05-29T03:31:53;6.60;99.90
20590;DHT22;10453;50.810;12.540;2023-05-29T03:36:10;6.50;99.90
20590;DHT22;10453;50.810;12.540;2023-05-29T03:40:28;6.60;99.90
20590;DHT22;10453;50.810;12.540;2023-05-29T03:44:45;6.40;99.90
20590;DHT22;10453;50.810;12.540;2023-05-29T03:49:02;6.30;99.90
20590;DHT22;10453;50.810;12.540;2023-05-29T03:53:20;6.20;99.90
20590;DHT22;10453;50.810;12.540;2023-05-29T03:57:37;6.30;99.90
20590;DHT22;10453;50.810;12.540;2023-05-29T04:01:55;6.50;99.90
20590;DHT22;10453;50.810;12.540;2023-05-29T04:06:12;6.60;99.90
20590;DHT22;10453;50.810;12.540;2023-05-29T04:10:30;6.70;99.90
20590;DHT22;10453;50.810;12.540;2023-05-29T04:14:50;6.70;99.90
20590;DHT22;10453;50.810;12.540;2023-05-29T04:19:08;6.90;99.90
20590;DHT22;10453;50.810;12.540;2023-05-29T04:23:25;7.00;99.90
20590;DHT22;10453;50.810;12.540;2023-05-29T04:27:44;7.10;99.90
20590;DHT22;10453;50.810;12.540;2023-05-29T04:32:05;7.20;99.90
20590;DHT22;10453;50.810;12.540;2023-05-29T04:36:24;7.30;99.90
20590;DHT22;10453;50.810;12.540;2023-05-29T04:40:44;7.40;99.90
20590;DHT22;10453;50.810;12.540;2023-05-29T04:45:02;7.40;99.90
20590;DHT22;10453;50.810;12.540;2023-05-29T04:49:24;7.60;99.90
20590;DHT22;10453;50.810;12.540;2023-05-29T04:53:41;7.70;99.90
20590;DHT22;10453;50.810;12.540;2023-05-29T04:57:59;7.90;99.90
20590;DHT22;10453;50.810;12.540;2023-05-29T05:02:17;8.10;99.90
20590;DHT22;10453;50.810;12.540;2023-05-29T05:06:34;8.30;99.90
20590;DHT22;10453;50.810;12.540;2023-05-29T05:10:51;8.50;99.90
20590;DHT22;10453;50.810;12.540;2023-05-29T05:15:09;8.70;99.90
20590;DHT22;10453;50.810;12.540;2023-05-29T05:19:27;8.90;99.90
20590;DHT22;10453;50.810;12.540;2023-05-29T05:23:45;9.00;99.90
20590;DHT22;10453;50.810;12.540;2023-05-29T05:28:14;9.20;99.90
20590;DHT22;10453;50.810;12.540;2023-05-29T05:32:32;9.30;99.90
20590;DHT22;10453;50.810;12.540;2023-05-29T05:36:49;9.50;99.90
20590;DHT22;10453;50.810;12.540;2023-05-29T05:41:07;9.50;99.90
20590;DHT22;10453;50.810;12.540;2023-05-29T05:45:24;9.60;99.90
20590;DHT22;10453;50.810;12.540;2023-05-29T05:49:41;9.80;99.90
20590;DHT22;10453;50.810;12.540;2023-05-29T05:54:00;10.00;99.90
20590;DHT22;10453;50.810;12.540;2023-05-29T05:58:17;10.30;99.90
20590;DHT22;10453;50.810;12.540;2023-05-29T06:02:34;10.40;99.90
20590;DHT22;10453;50.810;12.540;2023-05-29T06:06:52;10.50;99.90
20590;DHT22;10453;50.810;12.540;2023-05-29T06:11:09;10.60;99.90
20590;DHT22;10453;50.810;12.540;2023-05-29T06:15:27;10.80;99.90
20590;DHT22;10453;50.810;12.540;2023-05-29T06:19:44;10.90;99.90
20590;DHT22;10453;50.810;12.540;2023-05-29T06:24:02;11.10;99.90
20590;DHT22;10453;50.810;12.540;2023-05-29T06:28:20;11.20;99.90
20590;DHT22;10453;50.810;12.540;2023-05-29T06:32:37;11.50;99.90
20590;DHT22;10453;50.810;12.540;2023-05-29T06:36:54;11.80;99.90
20590;DHT22;10453;50.810;12.540;2023-05-29T06:41:12;11.90;99.90
20590;DHT22;10453;50.810;12.540;2023-05-29T06:45:29;12.10;99.90
20590;DHT22;10453;50.810;12.540;2023-05-29T06:49:46;12.20;99.90
20590;DHT22;10453;50.810;12.540;2023-05-29T06:54:04;12.30;99.90
20590;DHT22;10453;50.810;12.540;2023-05-29T06:58:21;12.60;99.90
20590;DHT22;10453;50.810;12.540;2023-05-29T07:02:39;12.80;99.90
20590;DHT22;10453;50.810;12.540;2023-05-29T07:06:56;12.90;99.90
20590;DHT22;10453;50.810;12.540;2023-05-29T07:11:14;13.20;99.90
20590;DHT22;10453;50.810;12.540;2023-05-29T07:15:31;13.50;99.90
20590;DHT22;10453;50.810;12.540;2023-05-29T07:19:49;13.60;99.90
20590;DHT22;10453;50.810;12.540;2023-05-29T07:24:06;13.80;99.90
20590;DHT22;10453;50.810;12.540;2023-05-29T07:28:24;14.30;99.90
20590;DHT22;10453;50.810;12.540;2023-05-29T07:32:41;14.60;99.90
20590;DHT22;10453;50.810;12.540;2023-05-29T07:37:03;14.80;99.90
20590;DHT22;10453;50.810;12.540;2023-05-29T07:41:21;15.10;99.90
20590;DHT22;10453;50.810;12.540;2023-05-29T07:45:39;16.00;99.90
20590;DHT22;10453;50.810;12.540;2023-05-29T07:49:56;17.80;99.90
20590;DHT22;10453;50.810;12.540;2023-05-29T07:54:14;18.20;99.90
20590;DHT22;10453;50.810;12.540;2023-05-29T07:58:34;18.20;99.90
20590;DHT22;10453;50.810;12.540;2023-05-29T08:02:52;19.00;99.90
20590;DHT22;10453;50.810;12.540;2023-05-29T08:07:10;19.50;99.90
20590;DHT22;10453;50.810;12.540;2023-05-29T08:11:27;19.60;99.90
20590;DHT22;10453;50.810;12.540;2023-05-29T08:15:45;20.20;99.90
20590;DHT22;10453;50.810;12.540;2023-05-29T08:20:03;20.10;99.90
20590;DHT22;10453;50.810;12.540;2023-05-29T08:24:23;20.40;99.90
20590;DHT22;10453;50.810;12.540;2023-05-29T08:28:40;21.30;99.90
20590;DHT22;10453;50.810;12.540;2023-05-29T08:32:58;19.60;99.90
20590;DHT22;10453;50.810;12.540;2023-05-29T08:37:16;20.70;99.30
20590;DHT22;10453;50.810;12.540;2023-05-29T08:41:44;20.90;99.90
20590;DHT22;10453;50.810;12.540;2023-05-29T08:46:06;21.50;96.80
20590;DHT22;10453;50.810;12.540;2023-05-29T08:50:24;21.50;95.60
20590;DHT22;10453;50.810;12.540;2023-05-29T08:54:43;21.70;97.60
20590;DHT22;10453;50.810;12.540;2023-05-29T08:59:01;22.30;99.90
20590;DHT22;10453;50.810;12.540;2023-05-29T09:03:23;22.30;99.20
20590;DHT22;10453;50.810;12.540;2023-05-29T09:07:41;23.00;93.20
20590;DHT22;10453;50.810;12.540;2023-05-29T09:11:58;21.80;87.00
20590;DHT22;10453;50.810;12.540;2023-05-29T09:16:17;22.50;85.60
20590;DHT22;10453;50.810;12.540;2023-05-29T09:20:34;23.80;90.70
20590;DHT22;10453;50.810;12.540;2023-05-29T09:24:52;23.20;83.70
20590;DHT22;10453;50.810;12.540;2023-05-29T09:29:09;22.00;83.10
20590;DHT22;10453;50.810;12.540;2023-05-29T09:33:27;23.30;91.40
20590;DHT22;10453;50.810;12.540;2023-05-29T09:37:45;23.70;85.50
20590;DHT22;10453;50.810;12.540;2023-05-29T09:42:04;23.60;82.40
20590;DHT22;10453;50.810;12.540;2023-05-29T09:46:23;23.50;80.10
20590;DHT22;10453;50.810;12.540;2023-05-29T09:50:40;24.70;75.50
20590;DHT22;10453;50.810;12.540;2023-05-29T09:55:02;25.40;77.60
20590;DHT22;10453;50.810;12.540;2023-05-29T09:59:19;24.60;73.60
20590;DHT22;10453;50.810;12.540;2023-05-29T10:03:38;24.90;69.70
20590;DHT22;10453;50.810;12.540;2023-05-29T10:07:57;25.40;72.20
20590;DHT22;10453;50.810;12.540;2023-05-29T10:12:20;24.40;78.10
20590;DHT22;10453;50.810;12.540;2023-05-29T10:16:43;25.00;75.00
20590;DHT22;10453;50.810;12.540;2023-05-29T10:21:00;24.70;75.10
20590;DHT22;10453;50.810;12.540;2023-05-29T10:25:20;22.40;68.90
20590;DHT22;10453;50.810;12.540;2023-05-29T10:29:56;24.70;72.10
20590;DHT22;10453;50.810;12.540;2023-05-29T10:34:36;24.10;70.30
20590;DHT22;10453;50.810;12.540;2023-05-29T10:38:56;25.30;66.90
20590;DHT22;10453;50.810;12.540;2023-05-29T10:43:30;25.00;61.30
20590;DHT22;10453;50.810;12.540;2023-05-29T10:47:49;25.70;62.00
20590;DHT22;10453;50.810;12.540;2023-05-29T10:52:06;23.60;61.20
20590;DHT22;10453;50.810;12.540;2023-05-29T10:56:30;24.70;61.00
20590;DHT22;10453;50.810;12.540;2023-05-29T11:00:50;25.70;68.10
20590;DHT22;10453;50.810;12.540;2023-05-29T11:05:26;24.90;61.70
20590;DHT22;10453;50.810;12.540;2023-05-29T11:09:44;24.60;59.60
20590;DHT22;10453;50.810;12.540;2023-05-29T11:14:05;24.80;58.70
20590;DHT22;10453;50.810;12.540;2023-05-29T11:18:22;24.60;63.90
20590;DHT22;10453;50.810;12.540;2023-05-29T11:27:19;26.60;58.00
20590;DHT22;10453;50.810;12.540;2023-05-29T11:31:37;25.70;58.50
20590;DHT22;10453;50.810;12.540;2023-05-29T11:35:58;26.70;58.20
20590;DHT22;10453;50.810;12.540;2023-05-29T11:40:18;26.90;54.30
20590;DHT22;10453;50.810;12.540;2023-05-29T11:44:35;26.90;62.50
20590;DHT22;10453;50.810;12.540;2023-05-29T11:48:52;25.90;56.90
20590;DHT22;10453;50.810;12.540;2023-05-29T11:53:11;23.70;57.60
20590;DHT22;10453;50.810;12.540;2023-05-29T11:57:29;22.90;63.80
20590;DHT22;10453;50.810;12.540;2023-05-29T12:01:48;25.70;58.80
20590;DHT22;10453;50.810;12.540;2023-05-29T12:06:06;27.10;56.60
20590;DHT22;10453;50.810;12.540;2023-05-29T12:10:24;27.10;56.90
20590;DHT22;10453;50.810;12.540;2023-05-29T12:14:41;25.80;62.10
20590;DHT22;10453;50.810;12.540;2023-05-29T12:19:00;26.20;57.80
20590;DHT22;10453;50.810;12.540;2023-05-29T12:23:18;27.20;58.10
20590;DHT22;10453;50.810;12.540;2023-05-29T12:27:42;25.80;57.80
20590;DHT22;10453;50.810;12.540;2023-05-29T12:32:00;27.30;55.90
20590;DHT22;10453;50.810;12.540;2023-05-29T12:36:17;26.30;52.80
20590;DHT22;10453;50.810;12.540;2023-05-29T12:40:35;26.50;58.10
20590;DHT22;10453;50.810;12.540;2023-05-29T12:44:54;28.20;51.40
20590;DHT22;10453;50.810;12.540;2023-05-29T12:49:20;26.90;53.70
20590;DHT22;10453;50.810;12.540;2023-05-29T12:53:38;23.90;53.80
20590;DHT22;10453;50.810;12.540;2023-05-29T12:57:55;25.00;55.20
20590;DHT22;10453;50.810;12.540;2023-05-29T13:02:13;25.10;51.90
20590;DHT22;10453;50.810;12.540;2023-05-29T13:06:31;26.40;53.50
20590;DHT22;10453;50.810;12.540;2023-05-29T13:10:48;28.10;52.40
20590;DHT22;10453;50.810;12.540;2023-05-29T13:15:06;28.20;56.30
20590;DHT22;10453;50.810;12.540;2023-05-29T13:19:23;29.10;53.10
20590;DHT22;10453;50.810;12.540;2023-05-29T13:23:41;27.90;53.40
20590;DHT22;10453;50.810;12.540;2023-05-29T13:27:58;27.50;51.30
20590;DHT22;10453;50.810;12.540;2023-05-29T13:32:15;28.20;51.70
20590;DHT22;10453;50.810;12.540;2023-05-29T13:36:33;25.40;53.30
20590;DHT22;10453;50.810;12.540;2023-05-29T13:40:53;24.50;55.30
20590;DHT22;10453;50.810;12.540;2023-05-29T13:45:10;24.70;58.60
20590;DHT22;10453;50.810;12.540;2023-05-29T13:49:29;23.80;57.20
20590;DHT22;10453;50.810;12.540;2023-05-29T13:53:46;25.80;53.00
20590;DHT22;10453;50.810;12.540;2023-05-29T13:58:03;26.90;49.90
20590;DHT22;10453;50.810;12.540;2023-05-29T14:02:21;28.50;49.00
20590;DHT22;10453;50.810;12.540;2023-05-29T14:06:39;27.50;48.70
20590;DHT22;10453;50.810;12.540;2023-05-29T14:10:57;27.60;53.30
20590;DHT22;10453;50.810;12.540;2023-05-29T14:15:14;26.00;53.50
20590;DHT22;10453;50.810;12.540;2023-05-29T14:19:31;24.60;52.60
20590;DHT22;10453;50.810;12.540;2023-05-29T14:23:49;23.80;52.70
20590;DHT22;10453;50.810;12.540;2023-05-29T14:28:06;25.70;51.40
20590;DHT22;10453;50.810;12.540;2023-05-29T14:32:23;26.70;50.70
20590;DHT22;10453;50.810;12.540;2023-05-29T14:36:41;27.10;47.60
20590;DHT22;10453;50.810;12.540;2023-05-29T14:41:01;27.20;48.70
20590;DHT22;10453;50.810;12.540;2023-05-29T14:45:25;25.80;52.80
20590;DHT22;10453;50.810;12.540;2023-05-29T14:49:44;27.40;53.00
20590;DHT22;10453;50.810;12.540;2023-05-29T14:54:01;28.00;50.30
20590;DHT22;10453;50.810;12.540;2023-05-29T14:58:19;27.40;54.50
20590;DHT22;10453;50.810;12.540;2023-05-29T15:02:37;25.00;50.90
20590;DHT22;10453;50.810;12.540;2023-05-29T15:06:57;24.50;56.90
20590;DHT22;10453;50.810;12.540;2023-05-29T15:11:23;24.60;53.20
20590;DHT22;10453;50.810;12.540;2023-05-29T15:15:40;25.50;53.90
20590;DHT22;10453;50.810;12.540;2023-05-29T15:20:03;26.00;55.80
20590;DHT22;10453;50.810;12.540;2023-05-29T15:24:21;26.80;53.90
20590;DHT22;10453;50.810;12.540;2023-05-29T15:28:39;26.50;51.40
20590;DHT22;10453;50.810;12.540;2023-05-29T15:32:57;25.10;55.20
20590;DHT22;10453;50.810;12.540;2023-05-29T15:37:14;24.00;54.50
20590;DHT22;10453;50.810;12.540;2023-05-29T15:41:33;23.60;59.00
20590;DHT22;10453;50.810;12.540;2023-05-29T15:45:50;23.80;54.40
20590;DHT22;10453;50.810;12.540;2023-05-29T15:50:08;23.00;56.30
20590;DHT22;10453;50.810;12.540;2023-05-29T15:54:25;23.40;57.20
20590;DHT22;10453;50.810;12.540;2023-05-29T15:58:43;24.30;55.60
20590;DHT22;10453;50.810;12.540;2023-05-29T16:03:00;24.50;61.60
20590;DHT22;10453;50.810;12.540;2023-05-29T16:07:23;24.60;59.60
20590;DHT22;10453;50.810;12.540;2023-05-29T16:11:40;23.90;55.40
20590;DHT22;10453;50.810;12.540;2023-05-29T16:15:58;24.10;58.50
20590;DHT22;10453;50.810;12.540;2023-05-29T16:20:16;24.10;57.10
20590;DHT22;10453;50.810;12.540;2023-05-29T16:24:34;24.10;56.90
20590;DHT22;10453;50.810;12.540;2023-05-29T16:28:54;23.80;60.30
20590;DHT22;10453;50.810;12.540;2023-05-29T16:33:11;23.50;58.30
20590;DHT22;10453;50.810;12.540;2023-05-29T16:37:29;23.10;57.70
20590;DHT22;10453;50.810;12.540;2023-05-29T16:41:48;23.00;56.00
20590;DHT22;10453;50.810;12.540;2023-05-29T16:46:05;22.70;58.30
20590;DHT22;10453;50.810;12.540;2023-05-29T16:50:26;22.20;58.30
20590;DHT22;10453;50.810;12.540;2023-05-29T16:54:43;22.10;59.30
20590;DHT22;10453;50.810;12.540;2023-05-29T16:59:01;22.00;58.40
20590;DHT22;10453;50.810;12.540;2023-05-29T17:03:19;22.00;59.40
20590;DHT22;10453;50.810;12.540;2023-05-29T17:07:36;22.00;59.80
20590;DHT22;10453;50.810;12.540;2023-05-29T17:11:55;21.80;63.90
20590;DHT22;10453;50.810;12.540;2023-05-29T17:16:12;21.70;62.70
20590;DHT22;10453;50.810;12.540;2023-05-29T17:20:30;21.50;64.90
20590;DHT22;10453;50.810;12.540;2023-05-29T17:24:48;21.30;66.70
20590;DHT22;10453;50.810;12.540;2023-05-29T17:29:06;21.10;65.30
20590;DHT22;10453;50.810;12.540;2023-05-29T17:33:24;21.10;69.30
20590;DHT22;10453;50.810;12.540;2023-05-29T17:37:41;20.90;67.70
20590;DHT22;10453;50.810;12.540;2023-05-29T17:41:58;20.80;70.40
20590;DHT22;10453;50.810;12.540;2023-05-29T17:46:17;20.40;71.30
20590;DHT22;10453;50.810;12.540;2023-05-29T17:50:36;20.10;71.00
20590;DHT22;10453;50.810;12.540;2023-05-29T17:54:54;20.00;72.70
20590;DHT22;10453;50.810;12.540;2023-05-29T17:59:13;19.90;71.40
20590;DHT22;10453;50.810;12.540;2023-05-29T18:03:30;19.80;74.40
20590;DHT22;10453;50.810;12.540;2023-05-29T18:07:48;19.70;73.50
20590;DHT22;10453;50.810;12.540;2023-05-29T18:12:05;19.50;76.00
20590;DHT22;10453;50.810;12.540;2023-05-29T18:16:23;19.40;73.80
20590;DHT22;10453;50.810;12.540;2023-05-29T18:20:40;19.30;79.60
20590;DHT22;10453;50.810;12.540;2023-05-29T18:24:58;19.10;77.40
20590;DHT22;10453;50.810;12.540;2023-05-29T18:29:15;18.80;79.30
20590;DHT22;10453;50.810;12.540;2023-05-29T18:33:33;18.70;80.10
20590;DHT22;10453;50.810;12.540;2023-05-29T18:37:50;18.60;85.90
20590;DHT22;10453;50.810;12.540;2023-05-29T18:42:09;18.40;87.10
20590;DHT22;10453;50.810;12.540;2023-05-29T18:46:26;18.20;90.30
20590;DHT22;10453;50.810;12.540;2023-05-29T18:50:44;18.10;91.30
20590;DHT22;10453;50.810;12.540;2023-05-29T18:55:02;17.90;92.20
20590;DHT22;10453;50.810;12.540;2023-05-29T18:59:19;17.80;95.20
20590;DHT22;10453;50.810;12.540;2023-05-29T19:03:37;17.60;97.50
20590;DHT22;10453;50.810;12.540;2023-05-29T19:07:55;17.40;98.70
20590;DHT22;10453;50.810;12.540;2023-05-29T19:12:13;17.20;99.90
20590;DHT22;10453;50.810;12.540;2023-05-29T19:16:31;17.10;99.90
20590;DHT22;10453;50.810;12.540;2023-05-29T19:20:49;17.00;99.90
20590;DHT22;10453;50.810;12.540;2023-05-29T19:25:07;16.90;99.90
20590;DHT22;10453;50.810;12.540;2023-05-29T19:29:24;16.70;99.90
20590;DHT22;10453;50.810;12.540;2023-05-29T19:33:42;16.60;99.90
20590;DHT22;10453;50.810;12.540;2023-05-29T19:37:59;16.50;99.90
20590;DHT22;10453;50.810;12.540;2023-05-29T19:42:17;16.40;99.90
20590;DHT22;10453;50.810;12.540;2023-05-29T19:46:36;16.30;99.90
20590;DHT22;10453;50.810;12.540;2023-05-29T19:50:53;16.10;99.90
20590;DHT22;10453;50.810;12.540;2023-05-29T19:55:11;15.90;99.90
20590;DHT22;10453;50.810;12.540;2023-05-29T19:59:28;15.80;99.90
20590;DHT22;10453;50.810;12.540;2023-05-29T20:03:46;15.50;99.90
20590;DHT22;10453;50.810;12.540;2023-05-29T20:08:04;15.20;99.90
20590;DHT22;10453;50.810;12.540;2023-05-29T20:12:21;14.90;99.90
20590;DHT22;10453;50.810;12.540;2023-05-29T20:16:39;14.60;99.90
20590;DHT22;10453;50.810;12.540;2023-05-29T20:20:56;14.40;99.90
20590;DHT22;10453;50.810;12.540;2023-05-29T20:25:15;14.10;99.90
20590;DHT22;10453;50.810;12.540;2023-05-29T20:29:34;13.90;99.90
20590;DHT22;10453;50.810;12.540;2023-05-29T20:33:52;13.70;99.90
20590;DHT22;10453;50.810;12.540;2023-05-29T20:38:09;13.70;99.90
20590;DHT22;10453;50.810;12.540;2023-05-29T20:42:29;13.60;99.90
20590;DHT22;10453;50.810;12.540;2023-05-29T20:46:47;13.50;99.90
20590;DHT22;10453;50.810;12.540;2023-05-29T20:51:06;13.40;99.90
20590;DHT22;10453;50.810;12.540;2023-05-29T20:55:23;13.30;99.90
20590;DHT22;10453;50.810;12.540;2023-05-29T20:59:45;13.10;99.90
20590;DHT22;10453;50.810;12.540;2023-05-29T21:04:03;13.00;99.90
20590;DHT22;10453;50.810;12.540;2023-05-29T21:08:21;13.00;99.90
20590;DHT22;10453;50.810;12.540;2023-05-29T21:12:38;13.00;99.90
20590;DHT22;10453;50.810;12.540;2023-05-29T21:16:56;13.00;99.90
20590;DHT22;10453;50.810;12.540;2023-05-29T21:21:14;12.80;99.90
20590;DHT22;10453;50.810;12.540;2023-05-29T21:25:32;12.80;99.90
20590;DHT22;10453;50.810;12.540;2023-05-29T21:29:49;12.70;99.90
20590;DHT22;10453;50.810;12.540;2023-05-29T21:34:07;12.80;99.90
20590;DHT22;10453;50.810;12.540;2023-05-29T21:38:25;12.80;99.90
20590;DHT22;10453;50.810;12.540;2023-05-29T21:42:42;12.80;99.90
20590;DHT22;10453;50.810;12.540;2023-05-29T21:47:00;12.80;99.90
20590;DHT22;10453;50.810;12.540;2023-05-29T21:51:17;12.80;99.90
20590;DHT22;10453;50.810;12.540;2023-05-29T21:55:34;12.80;99.90
20590;DHT22;10453;50.810;12.540;2023-05-29T21:59:52;12.70;99.90
20590;DHT22;10453;50.810;12.540;2023-05-29T22:04:09;12.60;99.90
20590;DHT22;10453;50.810;12.540;2023-05-29T22:08:42;12.60;99.90
20590;DHT22;10453;50.810;12.540;2023-05-29T22:13:00;12.40;99.90
20590;DHT22;10453;50.810;12.540;2023-05-29T22:17:21;12.20;99.90
20590;DHT22;10453;50.810;12.540;2023-05-29T22:21:39;12.10;99.90
20590;DHT22;10453;50.810;12.540;2023-05-29T22:26:00;12.00;99.90
20590;DHT22;10453;50.810;12.540;2023-05-29T22:30:18;12.00;99.90
20590;DHT22;10453;50.810;12.540;2023-05-29T22:34:36;11.90;99.90
20590;DHT22;10453;50.810;12.540;2023-05-29T22:38:54;11.70;99.90
20590;DHT22;10453;50.810;12.540;2023-05-29T22:43:12;11.50;99.90
20590;DHT22;10453;50.810;12.540;2023-05-29T22:47:30;11.40;99.90
20590;DHT22;10453;50.810;12.540;2023-05-29T22:51:48;11.30;99.90
20590;DHT22;10453;50.810;12.540;2023-05-29T22:56:07;11.30;99.90
20590;DHT22;10453;50.810;12.540;2023-05-29T23:00:24;11.30;99.90
20590;DHT22;10453;50.810;12.540;2023-05-29T23:04:42;11.30;99.90
20590;DHT22;10453;50.810;12.540;2023-05-29T23:09:00;11.10;99.90
20590;DHT22;10453;50.810;12.540;2023-05-29T23:13:19;11.00;99.90
20590;DHT22;10453;50.810;12.540;2023-05-29T23:17:36;11.00;99.90
20590;DHT22;10453;50.810;12.540;2023-05-29T23:21:54;10.90;99.90
20590;DHT22;10453;50.810;12.540;2023-05-29T23:26:11;10.90;99.90
20590;DHT22;10453;50.810;12.540;2023-05-29T23:30:29;10.70;99.90
20590;DHT22;10453;50.810;12.540;2023-05-29T23:34:47;10.60;99.90
20590;DHT22;10453;50.810;12.540;2023-05-29T23:39:04;10.50;99.90
20590;DHT22;10453;50.810;12.540;2023-05-29T23:43:21;10.50;99.90
20590;DHT22;10453;50.810;12.540;2023-05-29T23:47:38;10.30;99.90
20590;DHT22;10453;50.810;12.540;2023-05-29T23:51:56;10.30;99.90
20590;DHT22;10453;50.810;12.540;2023-05-29T23:56:13;10.30;99.90
